createdAt,value
2022-12-08T00:00:10.273Z,3.27
2022-12-08T00:02:54.850Z,3.36
2022-12-08T00:05:55.547Z,3.44
2022-12-08T00:08:56.361Z,3.47
2022-12-08T00:11:40.450Z,3.55
2022-12-08T00:14:26.679Z,3.59
2022-12-08T00:17:11.591Z,3.63
2022-12-08T00:19:56.127Z,3.64
2022-12-08T00:22:39.311Z,3.63
2022-12-08T00:25:22.335Z,3.69
2022-12-08T00:28:05.695Z,3.66
2022-12-08T00:30:48.782Z,3.67
2022-12-08T00:33:33.023Z,3.56
2022-12-08T00:36:17.792Z,3.41
2022-12-08T00:39:01.222Z,3.47
2022-12-08T00:42:10.111Z,3.41
2022-12-08T00:44:53.243Z,3.40
2022-12-08T00:47:36.356Z,3.42
2022-12-08T00:50:19.579Z,3.20
2022-12-08T00:53:09.764Z,3.22
2022-12-08T00:55:56.467Z,3.25
2022-12-08T00:58:39.960Z,3.22
2022-12-08T01:02:13.807Z,3.23
2022-12-08T01:08:52.638Z,3.14
2022-12-08T01:11:36.661Z,3.20
2022-12-08T01:14:19.737Z,3.13
2022-12-08T01:17:02.874Z,3.11
2022-12-08T01:19:46.491Z,3.10
2022-12-08T01:22:29.885Z,3.12
2022-12-08T01:25:15.161Z,2.99
2022-12-08T01:27:58.277Z,3.12
2022-12-08T01:30:42.338Z,3.14
2022-12-08T01:33:26.163Z,3.14
2022-12-08T01:36:10.527Z,3.17
2022-12-08T01:38:54.984Z,3.15
2022-12-08T01:41:40.382Z,3.16
2022-12-08T01:44:55.056Z,3.20
2022-12-08T01:47:42.637Z,3.18
2022-12-08T01:50:26.807Z,3.16
2022-12-08T01:53:13.655Z,3.16
2022-12-08T01:56:00.660Z,3.15
2022-12-08T01:58:47.928Z,3.17
2022-12-08T02:01:31.130Z,3.16
2022-12-08T02:04:14.281Z,3.08
2022-12-08T02:06:57.736Z,3.10
2022-12-08T02:09:42.196Z,3.00
2022-12-08T02:12:26.321Z,2.97
2022-12-08T02:15:12.963Z,3.03
2022-12-08T02:18:08.689Z,3.03
2022-12-08T02:20:58.873Z,2.94
2022-12-08T02:23:53.747Z,2.97
2022-12-08T02:27:04.967Z,3.01
2022-12-08T02:30:19.848Z,3.02
2022-12-08T02:33:50.385Z,3.00
2022-12-08T02:36:44.413Z,2.97
2022-12-08T02:39:36.286Z,2.82
2022-12-08T02:42:28.939Z,2.85
2022-12-08T02:45:15.998Z,2.77
2022-12-08T02:47:59.997Z,2.73
2022-12-08T02:50:43.631Z,2.68
2022-12-08T02:53:31.655Z,2.58
2022-12-08T02:56:30.201Z,2.59
2022-12-08T02:59:24.019Z,2.53
2022-12-08T03:02:43.562Z,2.45
2022-12-08T03:05:40.787Z,2.55
2022-12-08T03:08:31.124Z,2.63
2022-12-08T03:11:20.466Z,2.63
2022-12-08T03:14:06.553Z,2.82
2022-12-08T03:16:54.171Z,2.80
2022-12-08T03:19:40.947Z,2.84
2022-12-08T03:22:28.604Z,2.76
2022-12-08T03:25:17.600Z,2.83
2022-12-08T03:28:01.641Z,2.76
2022-12-08T03:30:50.214Z,2.86
2022-12-08T03:33:37.032Z,2.80
2022-12-08T03:36:21.182Z,2.92
2022-12-08T03:39:05.049Z,2.76
2022-12-08T03:41:49.620Z,2.73
2022-12-08T03:44:32.790Z,2.57
2022-12-08T03:47:15.981Z,2.60
2022-12-08T03:49:59.023Z,2.67
2022-12-08T03:52:42.628Z,2.58
2022-12-08T03:55:25.755Z,2.67
2022-12-08T03:58:10.670Z,2.68
2022-12-08T04:00:53.780Z,2.76
2022-12-08T04:03:36.909Z,2.87
2022-12-08T04:06:21.232Z,2.76
2022-12-08T04:09:04.453Z,2.84
2022-12-08T04:11:47.781Z,2.85
2022-12-08T04:14:32.268Z,3.05
2022-12-08T04:17:15.365Z,3.17
2022-12-08T04:19:58.506Z,3.26
2022-12-08T04:22:41.648Z,3.18
2022-12-08T04:25:24.922Z,3.30
2022-12-08T04:28:08.268Z,3.38
2022-12-08T04:30:52.817Z,3.46
2022-12-08T04:33:36.370Z,3.54
2022-12-08T04:36:19.676Z,3.61
2022-12-08T04:39:03.627Z,3.58
2022-12-08T04:41:46.631Z,3.71
2022-12-08T04:44:29.714Z,3.77
2022-12-08T04:47:14.393Z,3.85
2022-12-08T04:49:57.856Z,3.96
2022-12-08T04:52:41.369Z,3.99
2022-12-08T04:55:24.482Z,3.95
2022-12-08T04:58:07.574Z,3.92
2022-12-08T05:00:50.822Z,4.05
2022-12-08T05:03:35.242Z,4.00
2022-12-08T05:06:18.358Z,4.06
2022-12-08T05:09:01.705Z,4.06
2022-12-08T05:11:48.840Z,4.00
2022-12-08T05:14:32.520Z,4.09
2022-12-08T05:17:15.643Z,4.22
2022-12-08T05:20:00.143Z,4.09
2022-12-08T05:22:43.334Z,4.15
2022-12-08T05:25:26.383Z,4.31
2022-12-08T05:28:39.472Z,4.11
2022-12-08T05:31:14.348Z,4.20
2022-12-08T05:34:02.773Z,4.27
2022-12-08T05:36:48.274Z,4.19
2022-12-08T05:39:31.319Z,4.25
2022-12-08T05:42:14.468Z,4.38
2022-12-08T05:44:58.142Z,4.37
2022-12-08T05:47:41.258Z,4.38
2022-12-08T05:50:24.343Z,4.41
2022-12-08T05:53:09.236Z,4.54
2022-12-08T05:55:52.554Z,4.42
2022-12-08T05:58:35.890Z,4.46
2022-12-08T06:01:24.164Z,4.47
2022-12-08T06:04:07.273Z,4.58
2022-12-08T06:06:51.034Z,4.50
2022-12-08T06:09:35.528Z,4.68
2022-12-08T06:12:18.666Z,4.73
2022-12-08T06:15:01.672Z,4.78
2022-12-08T06:17:44.752Z,4.80
2022-12-08T06:20:27.874Z,4.76
2022-12-08T06:23:11.329Z,4.79
2022-12-08T06:25:56.943Z,4.37
2022-12-08T06:28:40.934Z,4.47
2022-12-08T06:31:25.911Z,4.58
2022-12-08T06:34:09.021Z,4.42
2022-12-08T06:36:52.110Z,4.56
2022-12-08T06:39:35.252Z,4.42
2022-12-08T06:42:37.266Z,4.78
2022-12-08T06:45:20.534Z,5.15
2022-12-08T06:48:04.415Z,5.36
2022-12-08T06:50:47.565Z,5.64
2022-12-08T06:53:30.883Z,5.91
2022-12-08T06:56:16.022Z,8.41
2022-12-08T06:59:00.661Z,12.80
2022-12-08T07:01:43.933Z,16.20
2022-12-08T07:04:27.206Z,17.99
2022-12-08T07:07:11.275Z,18.66
2022-12-08T07:09:54.415Z,19.44
2022-12-08T07:12:38.128Z,20.32
2022-12-08T07:15:22.885Z,21.91
2022-12-08T07:18:06.274Z,18.64
2022-12-08T07:20:49.375Z,15.19
2022-12-08T07:23:33.026Z,13.86
2022-12-08T07:26:17.711Z,13.32
2022-12-08T07:29:01.936Z,12.18
2022-12-08T07:31:46.460Z,11.01
2022-12-08T07:34:29.472Z,10.42
2022-12-08T07:37:12.698Z,9.90
2022-12-08T07:39:55.860Z,9.45
2022-12-08T07:42:39.136Z,9.16
2022-12-08T07:45:25.655Z,8.75
2022-12-08T07:48:14.352Z,8.60
2022-12-08T07:51:01.831Z,8.43
2022-12-08T07:53:53.132Z,8.23
2022-12-08T07:56:36.818Z,8.01
2022-12-08T07:59:20.322Z,8.04
2022-12-08T08:02:22.803Z,8.16
2022-12-08T08:05:09.009Z,7.85
2022-12-08T08:07:52.234Z,7.97
2022-12-08T08:10:35.468Z,8.09
2022-12-08T08:13:19.189Z,8.14
2022-12-08T08:16:04.969Z,7.94
2022-12-08T08:18:49.428Z,7.90
2022-12-08T08:21:45.383Z,8.34
2022-12-08T08:24:28.863Z,8.58
2022-12-08T08:27:12.733Z,8.40
2022-12-08T08:29:55.842Z,8.70
2022-12-08T08:32:38.947Z,9.01
2022-12-08T08:35:22.518Z,9.29
2022-12-08T08:38:09.334Z,9.73
2022-12-08T08:40:53.031Z,9.93
2022-12-08T08:43:38.694Z,10.03
2022-12-08T08:46:22.493Z,9.85
2022-12-08T08:49:05.678Z,10.08
2022-12-08T08:51:49.104Z,10.39
2022-12-08T08:54:34.319Z,10.37
2022-12-08T08:57:23.670Z,10.88
2022-12-08T09:00:10.823Z,10.86
2022-12-08T09:02:53.998Z,11.30
2022-12-08T09:05:39.605Z,11.53
2022-12-08T09:08:22.802Z,12.43
2022-12-08T09:11:09.673Z,13.60
2022-12-08T09:13:54.725Z,12.85
2022-12-08T09:16:42.373Z,15.17
2022-12-08T09:19:25.850Z,16.21
2022-12-08T09:22:09.031Z,14.66
2022-12-08T09:24:54.402Z,15.49
2022-12-08T09:27:41.568Z,15.65
2022-12-08T09:30:24.711Z,15.70
2022-12-08T09:33:08.158Z,16.23
2022-12-08T09:35:51.512Z,15.80
2022-12-08T09:38:34.668Z,15.58
2022-12-08T09:41:29.330Z,14.79
2022-12-08T09:44:39.864Z,15.80
2022-12-08T09:47:29.494Z,17.26
2022-12-08T09:50:23.884Z,17.94
2022-12-08T09:53:13.698Z,18.90
2022-12-08T09:55:59.767Z,21.33
2022-12-08T09:58:52.738Z,25.08
2022-12-08T10:01:41.963Z,26.11
2022-12-08T10:04:29.047Z,24.54
2022-12-08T10:07:18.707Z,24.81
2022-12-08T10:10:07.466Z,24.90
2022-12-08T10:12:56.517Z,24.28
2022-12-08T10:15:48.608Z,26.08
2022-12-08T10:18:35.801Z,27.98
2022-12-08T10:21:22.994Z,28.83
2022-12-08T10:24:15.256Z,31.35
2022-12-08T10:26:58.653Z,32.16
2022-12-08T10:29:42.292Z,32.52
2022-12-08T10:32:35.472Z,31.73
2022-12-08T10:35:22.537Z,30.89
2022-12-08T10:38:06.598Z,29.45
2022-12-08T10:40:52.270Z,26.54
2022-12-08T10:43:38.037Z,26.01
2022-12-08T10:46:25.925Z,28.20
2022-12-08T10:49:13.520Z,30.62
2022-12-08T10:51:58.688Z,34.02
2022-12-08T10:54:44.192Z,31.51
2022-12-08T10:57:27.596Z,29.71
2022-12-08T11:00:17.127Z,28.67
2022-12-08T11:03:02.797Z,31.51
2022-12-08T11:05:46.148Z,29.69
2022-12-08T11:08:31.556Z,27.99
2022-12-08T11:11:15.226Z,26.93
2022-12-08T11:13:58.584Z,25.75
2022-12-08T11:16:43.952Z,24.56
2022-12-08T11:19:28.991Z,21.68
2022-12-08T11:22:23.094Z,20.19
2022-12-08T11:25:21.027Z,18.88
2022-12-08T11:28:04.379Z,17.83
2022-12-08T11:30:54.518Z,17.36
2022-12-08T11:33:37.603Z,16.58
2022-12-08T11:36:23.630Z,15.93
2022-12-08T11:39:07.144Z,15.35
2022-12-08T11:41:55.194Z,14.99
2022-12-08T11:44:46.115Z,14.70
2022-12-08T11:47:36.370Z,14.62
2022-12-08T11:50:25.815Z,14.74
2022-12-08T11:53:18.778Z,15.35
2022-12-08T11:56:08.505Z,14.92
2022-12-08T11:58:57.134Z,14.54
2022-12-08T12:01:42.725Z,14.28
2022-12-08T12:04:31.256Z,14.03
2022-12-08T12:07:47.546Z,13.76
2022-12-08T12:10:56.180Z,14.04
2022-12-08T12:14:06.756Z,13.99
2022-12-08T12:17:03.511Z,13.79
2022-12-08T12:19:49.969Z,13.87
2022-12-08T12:22:38.871Z,13.75
2022-12-08T12:25:25.222Z,13.04
2022-12-08T12:28:10.655Z,12.48
2022-12-08T12:31:02.553Z,12.87
2022-12-08T12:33:48.326Z,13.26
2022-12-08T12:36:51.309Z,13.09
2022-12-08T12:39:47.363Z,12.50
2022-12-08T12:42:43.787Z,13.14
2022-12-08T12:45:31.802Z,13.35
2022-12-08T12:48:24.260Z,12.73
2022-12-08T12:51:37.267Z,12.49
2022-12-08T12:54:24.510Z,12.78
2022-12-08T12:57:26.188Z,12.66
2022-12-08T13:00:18.790Z,12.44
2022-12-08T13:03:02.221Z,12.87
2022-12-08T13:05:52.286Z,12.74
2022-12-08T13:08:35.421Z,12.74
2022-12-08T13:11:18.982Z,12.64
2022-12-08T13:14:04.032Z,12.71
2022-12-08T13:16:53.652Z,12.12
2022-12-08T13:19:39.930Z,12.21
2022-12-08T13:22:50.251Z,12.25
2022-12-08T13:25:48.258Z,11.60
2022-12-08T13:28:34.783Z,11.70
2022-12-08T13:31:38.396Z,11.85
2022-12-08T13:34:34.648Z,11.96
2022-12-08T13:37:26.473Z,11.94
2022-12-08T13:40:18.082Z,11.71
2022-12-08T13:43:11.363Z,11.53
2022-12-08T13:46:52.911Z,11.16
2022-12-08T13:56:43.404Z,11.14
2022-12-08T13:58:28.215Z,10.99
2022-12-08T14:01:16.566Z,10.90
2022-12-08T14:07:05.341Z,10.69
2022-12-08T14:09:48.958Z,10.53
2022-12-08T14:12:33.551Z,10.32
2022-12-08T14:15:17.595Z,10.28
2022-12-08T14:18:00.860Z,10.33
2022-12-08T14:21:18.916Z,10.18
2022-12-08T14:23:47.089Z,9.83
2022-12-08T14:26:36.139Z,10.19
2022-12-08T14:29:39.242Z,10.06
2022-12-08T14:32:29.165Z,9.91
2022-12-08T14:35:23.980Z,9.85
2022-12-08T14:38:13.842Z,9.57
2022-12-08T14:41:05.546Z,9.70
2022-12-08T14:43:59.776Z,9.73
2022-12-08T14:47:05.798Z,9.49
2022-12-08T14:49:49.791Z,9.48
2022-12-08T14:52:33.326Z,9.47
2022-12-08T14:55:19.633Z,9.45
2022-12-08T14:58:03.003Z,9.19
2022-12-08T15:00:47.894Z,9.19
2022-12-08T15:03:35.119Z,9.23
2022-12-08T15:06:22.834Z,9.27
2022-12-08T15:09:18.643Z,9.34
2022-12-08T15:12:03.854Z,9.33
2022-12-08T15:14:57.056Z,9.29
2022-12-08T15:17:44.542Z,9.28
2022-12-08T15:20:35.489Z,9.16
2022-12-08T15:23:26.190Z,9.20
2022-12-08T15:26:09.856Z,9.23
2022-12-08T15:28:53.560Z,9.16
2022-12-08T15:31:36.737Z,8.99
2022-12-08T15:34:20.256Z,9.00
2022-12-08T15:37:05.905Z,9.03
2022-12-08T15:39:49.493Z,8.88
2022-12-08T15:42:32.597Z,8.97
2022-12-08T15:45:16.861Z,8.85
2022-12-08T15:48:00.702Z,8.84
2022-12-08T15:50:44.108Z,8.87
2022-12-08T15:53:28.899Z,8.70
2022-12-08T15:56:29.167Z,8.65
2022-12-08T15:59:17.139Z,8.53
2022-12-08T16:02:00.273Z,8.57
2022-12-08T16:05:25.657Z,8.45
2022-12-08T16:07:56.056Z,8.39
2022-12-08T16:11:28.849Z,8.32
2022-12-08T16:14:03.145Z,8.51
2022-12-08T16:16:59.310Z,8.30
2022-12-08T16:19:43.436Z,8.26
2022-12-08T16:25:52.719Z,8.17
2022-12-08T16:31:39.564Z,8.14
2022-12-08T16:34:22.985Z,8.11
2022-12-08T16:37:06.135Z,8.07
2022-12-08T16:39:50.809Z,8.24
2022-12-08T16:42:43.552Z,8.30
2022-12-08T16:45:29.979Z,8.34
2022-12-08T16:48:16.083Z,7.87
2022-12-08T16:50:59.271Z,7.89
2022-12-08T16:53:42.610Z,7.74
2022-12-08T16:56:32.233Z,7.82
2022-12-08T16:59:16.724Z,7.85
2022-12-08T17:02:01.347Z,7.91
2022-12-08T17:04:46.206Z,7.71
2022-12-08T17:07:29.409Z,7.64
2022-12-08T17:10:15.155Z,7.63
2022-12-08T17:12:58.823Z,7.56
2022-12-08T17:15:42.337Z,7.49
2022-12-08T17:18:27.140Z,7.61
2022-12-08T17:21:12.850Z,7.52
2022-12-08T17:23:56.286Z,7.52
2022-12-08T17:26:39.486Z,7.55
2022-12-08T17:29:22.800Z,7.42
2022-12-08T17:32:07.040Z,7.29
2022-12-08T17:34:52.378Z,7.37
2022-12-08T17:37:36.525Z,7.36
2022-12-08T17:40:19.917Z,7.29
2022-12-08T17:43:03.730Z,7.31
2022-12-08T17:45:48.543Z,7.39
2022-12-08T17:48:34.822Z,7.24
2022-12-08T17:51:19.333Z,7.18
2022-12-08T17:54:02.552Z,7.17
2022-12-08T17:56:45.694Z,7.07
2022-12-08T17:59:30.866Z,7.11
2022-12-08T18:02:15.120Z,7.04
2022-12-08T18:04:59.033Z,6.99
2022-12-08T18:07:44.699Z,7.01
2022-12-08T18:10:28.235Z,6.80
2022-12-08T18:13:13.217Z,6.94
2022-12-08T18:15:56.304Z,7.07
2022-12-08T18:18:39.648Z,7.04
2022-12-08T18:21:23.767Z,7.12
2022-12-08T18:24:10.113Z,7.21
2022-12-08T18:26:53.418Z,7.22
2022-12-08T18:29:36.726Z,7.28
2022-12-08T18:32:23.909Z,7.27
2022-12-08T18:35:08.083Z,7.13
2022-12-08T18:37:51.176Z,7.04
2022-12-08T18:40:35.845Z,6.93
2022-12-08T18:43:19.017Z,6.82
2022-12-08T18:46:03.502Z,6.97
2022-12-08T18:48:49.020Z,6.78
2022-12-08T18:51:32.113Z,6.83
2022-12-08T18:54:15.776Z,6.94
2022-12-08T18:57:00.251Z,7.02
2022-12-08T18:59:43.441Z,6.87
2022-12-08T19:02:26.725Z,7.05
2022-12-08T19:05:12.426Z,7.25
2022-12-08T19:07:58.537Z,7.01
2022-12-08T19:10:42.093Z,7.23
2022-12-08T19:13:28.057Z,7.33
2022-12-08T19:16:11.336Z,7.40
2022-12-08T19:18:54.552Z,7.46
2022-12-08T19:21:44.504Z,7.55
2022-12-08T19:24:29.450Z,7.56
2022-12-08T19:27:13.002Z,7.57
2022-12-08T19:29:57.998Z,7.57
2022-12-08T19:32:41.436Z,7.58
2022-12-08T19:35:24.707Z,7.57
2022-12-08T19:38:07.968Z,7.49
2022-12-08T19:41:08.761Z,7.40
2022-12-08T19:44:09.315Z,7.31
2022-12-08T19:46:53.968Z,7.23
2022-12-08T19:49:37.335Z,7.35
2022-12-08T19:52:20.930Z,7.43
2022-12-08T19:55:04.665Z,7.23
2022-12-08T19:57:47.962Z,7.34
2022-12-08T20:00:32.962Z,7.39
2022-12-08T20:03:21.593Z,7.24
2022-12-08T20:06:05.872Z,7.12
2022-12-08T20:08:50.712Z,7.12
2022-12-08T20:11:34.366Z,7.04
2022-12-08T20:14:18.183Z,7.20
2022-12-08T20:17:01.542Z,7.30
2022-12-08T20:19:46.715Z,7.24
2022-12-08T20:22:29.995Z,7.20
2022-12-08T20:25:13.524Z,7.14
2022-12-08T20:27:56.905Z,7.05
2022-12-08T20:30:41.914Z,7.16
2022-12-08T20:33:25.220Z,7.23
2022-12-08T20:36:16.474Z,7.13
2022-12-08T20:38:59.869Z,7.22
2022-12-08T20:41:44.295Z,7.17
2022-12-08T20:44:29.466Z,7.02
2022-12-08T20:47:13.332Z,6.94
2022-12-08T20:49:56.826Z,6.86
2022-12-08T20:52:41.501Z,6.89
2022-12-08T20:55:24.746Z,6.61
2022-12-08T20:58:08.250Z,6.61
2022-12-08T21:00:51.852Z,6.65
2022-12-08T21:03:35.316Z,6.57
2022-12-08T21:06:22.794Z,6.57
2022-12-08T21:09:07.446Z,6.60
2022-12-08T21:11:51.296Z,6.43
2022-12-08T21:14:34.616Z,6.64
2022-12-08T21:17:17.901Z,6.67
2022-12-08T21:20:01.427Z,6.60
2022-12-08T21:22:44.962Z,6.33
2022-12-08T21:25:29.546Z,6.32
2022-12-08T21:28:13.264Z,6.28
2022-12-08T21:30:57.915Z,6.31
2022-12-08T21:33:41.515Z,6.33
2022-12-08T21:36:25.078Z,6.36
2022-12-08T21:39:12.841Z,6.33
2022-12-08T21:42:15.225Z,6.34
2022-12-08T21:44:58.532Z,6.34
2022-12-08T21:47:42.210Z,6.37
2022-12-08T21:50:26.009Z,6.31
2022-12-08T21:53:09.413Z,6.38
2022-12-08T21:55:52.626Z,6.37
2022-12-08T21:58:37.315Z,6.37
2022-12-08T22:01:20.958Z,6.35
2022-12-08T22:04:04.575Z,6.44
2022-12-08T22:06:48.101Z,6.40
2022-12-08T22:09:31.581Z,6.40
2022-12-08T22:12:16.865Z,6.45
2022-12-08T22:15:03.268Z,6.32
2022-12-08T22:17:46.577Z,6.23
2022-12-08T22:20:29.784Z,6.26
2022-12-08T22:23:12.979Z,6.07
2022-12-08T22:25:59.280Z,6.07
2022-12-08T22:28:46.448Z,6.17
2022-12-08T22:31:30.966Z,6.12
2022-12-08T22:34:15.023Z,6.17
2022-12-08T22:36:58.184Z,6.19
2022-12-08T22:39:41.211Z,6.10
2022-12-08T22:42:24.272Z,6.26
2022-12-08T22:45:08.526Z,6.19
2022-12-08T22:47:52.976Z,6.32
2022-12-08T22:50:37.770Z,6.33
2022-12-08T22:53:20.875Z,6.40
2022-12-08T22:56:05.847Z,6.15
2022-12-08T22:58:49.225Z,6.19
2022-12-08T23:01:34.142Z,6.26
2022-12-08T23:04:19.094Z,6.31
2022-12-08T23:07:02.690Z,6.29
2022-12-08T23:09:46.353Z,6.32
2022-12-08T23:12:29.685Z,6.32
2022-12-08T23:15:13.004Z,6.28
2022-12-08T23:17:56.479Z,6.28
2022-12-08T23:20:41.453Z,6.32
2022-12-08T23:23:24.931Z,6.14
2022-12-08T23:26:19.538Z,6.29
2022-12-08T23:29:03.312Z,6.31
2022-12-08T23:31:46.508Z,6.25
2022-12-08T23:34:30.253Z,6.24
2022-12-08T23:37:14.996Z,6.37
2022-12-08T23:39:58.758Z,6.37
2022-12-08T23:42:42.040Z,6.33
2022-12-08T23:45:25.381Z,6.22
2022-12-08T23:48:08.533Z,6.25
2022-12-08T23:50:52.054Z,6.23
2022-12-08T23:53:36.831Z,6.19
2022-12-08T23:56:23.165Z,6.14
2022-12-08T23:59:09.138Z,6.18
